Latest Weather Observations for Kadina

IDS60801

Issued at 10:31 am CDT Saturday 21 January 2017 (issued every 30 minutes, with the page automatically refreshed every 10 minutes)

About weather observations | Map of weather stations | Latest weather observations for SA | Other Formats
Station Details ID: 022050 Name: KADINA AWS Lat: -33.97 Lon: 137.66 Height: 41.14 m
Data from the previous 72 hours. | See also: Recent months at Kadina
Date/Time
CDT
Temp
°C
App
Temp
°C
Dew
Point
°C
Rel
Hum
%
Delta-T
°C
Wind Press
QNH
hPa
Press
MSL
hPa
Rain since
9am
mm
Dir  Spd
km/h
Gust
km/h
Spd
kts
Gust
kts
21/10:30am 22.0 18.5 10.8 49 6.2 E 20 20 11 11 1014.7 1014.4 -
21/10:00am 20.4 16.5 10.8 54 5.2 E 22 30 12 16 1014.7 1014.5 0.0
21/09:30am 19.3 15.2 11.6 61 4.2 E 24 32 13 17 1014.8 1014.6 0.0
21/09:00am 17.8 13.3 11.4 66 3.5 ESE 26 33 14 18 1015.0 1014.8 0.0
21/08:30am 16.7 12.8 12.0 74 2.6 ESE 24 30 13 16 1014.8 1014.6 0.0
21/08:00am 15.6 12.4 12.0 79 2.0 E 20 26 11 14 1014.6 1014.4 0.0
21/07:30am 13.6 11.7 11.7 88 1.0 E 13 19 7 10 1014.5 1014.3 0.0
21/07:00am 11.5 9.2 10.4 93 0.6 ESE 13 13 7 7 1014.4 1014.2 0.0
21/06:30am 11.0 9.4 10.1 94 0.5 ESE 9 15 5 8 1014.2 1014.0 0.0
21/06:00am 10.9 9.6 10.0 94 0.5 E 7 9 4 5 1013.9 1013.7 0.0
21/05:30am 11.0 9.4 10.1 94 0.5 ESE 9 11 5 6 1013.6 1013.4 0.0
21/05:00am 11.1 9.1 10.2 94 0.5 SE 11 13 6 7 1013.3 1013.1 0.0
21/04:30am 11.3 9.4 10.4 94 0.5 SE 11 11 6 6 1013.2 1013.0 0.0
21/04:00am 11.6 9.6 10.3 92 0.7 ESE 11 13 6 7 1013.1 1012.9 0.0
21/03:30am 12.4 10.3 11.3 93 0.6 ESE 13 15 7 8 1012.8 1012.6 0.0
21/03:00am 11.7 9.7 10.3 91 0.7 ESE 11 13 6 7 1012.9 1012.7 0.0
21/02:30am 12.9 10.1 11.3 90 0.8 SE 17 20 9 11 1012.6 1012.4 0.0
21/02:00am 13.2 10.4 11.3 88 1.0 ESE 17 20 9 11 1012.6 1012.4 0.0
21/01:30am 14.6 11.9 11.6 82 1.6 SSE 17 20 9 11 1012.9 1012.7 0.0
21/01:00am 15.0 12.0 11.8 81 1.7 SSE 19 20 10 11 1012.9 1012.7 0.0
21/12:30am 15.6 12.7 12.4 81 1.8 SSE 19 24 10 13 1012.8 1012.6 0.0
21/12:00am 14.7 11.8 12.2 85 1.4 SE 19 20 10 11 1012.7 1012.5 0.0
 
Date/Time
CDT
Temp
°C
App
Temp
°C
Dew
Point
°C
Rel
Hum
%
Delta-T
°C
Wind Press
QNH
hPa
Press
MSL
hPa
Rain since
9am
mm
Dir  Spd
km/h
Gust
km/h
Spd
kts
Gust
kts
20/11:30pm 15.0 12.4 12.1 83 1.6 SE 17 20 9 11 1012.6 1012.4 0.0
20/11:00pm 15.6 13.2 12.5 82 1.7 SSE 17 20 9 11 1012.2 1012.0 0.0
20/10:30pm 15.3 13.2 12.4 83 1.6 SE 15 17 8 9 1012.1 1011.9 0.0
20/10:00pm 15.7 13.6 12.3 80 1.9 SE 15 19 8 10 1011.7 1011.5 0.0
20/09:30pm 16.6 14.5 12.4 76 2.3 SE 15 19 8 10 1011.3 1011.1 0.0
20/09:00pm 17.4 14.4 12.1 71 2.9 SE 19 24 10 13 1011.0 1010.8 0.0
20/08:30pm 18.5 15.0 12.3 67 3.5 SE 22 32 12 17 1010.5 1010.3 0.0
20/08:00pm 19.7 15.4 12.2 62 4.2 SE 26 32 14 17 1009.8 1009.6 0.0
20/07:30pm 20.8 16.2 12.2 58 4.8 SE 28 37 15 20 1009.5 1009.3 0.0
20/07:00pm 21.1 16.4 12.0 56 5.1 SSE 28 35 15 19 1009.2 1009.0 0.0
20/06:30pm 21.6 17.1 12.7 57 5.1 SSE 28 35 15 19 1008.9 1008.7 0.0
20/06:00pm 22.3 18.6 12.8 55 5.4 SE 24 32 13 17 1008.8 1008.6 0.0
20/05:30pm 22.9 19.2 12.8 53 5.8 SE 24 32 13 17 1008.7 1008.5 0.0
20/05:00pm 23.9 20.3 13.2 51 6.2 SE 24 35 13 19 1008.6 1008.4 0.0
20/04:30pm 24.7 21.2 13.3 49 6.7 SSE 24 35 13 19 1008.6 1008.4 0.0
20/04:00pm 23.4 19.6 12.4 50 6.3 SSE 24 35 13 19 1008.5 1008.3 0.0
20/03:30pm 22.7 18.1 12.3 52 5.9 SSE 28 43 15 23 1008.4 1008.2 0.0
20/03:00pm 22.5 19.2 12.7 54 5.6 SSE 22 35 12 19 1008.4 1008.2 0.0
20/02:30pm 22.9 20.0 13.9 57 5.3 SSE 22 35 12 19 1008.4 1008.2 0.0
20/02:00pm 22.5 19.0 13.3 56 5.3 SSE 24 35 13 19 1008.4 1008.2 0.0
20/01:30pm 22.7 19.3 13.7 56 5.2 S 24 39 13 21 1008.4 1008.2 0.0
20/01:00pm 21.4 17.5 13.3 60 4.7 SSE 26 33 14 18 1008.3 1008.1 0.0
20/12:30pm 20.9 17.3 14.3 66 3.9 S 26 37 14 20 1008.2 1008.0 0.0
20/12:00pm 20.0 15.6 14.1 69 3.4 S 30 39 16 21 1008.1 1007.9 0.0
20/11:30am 19.3 14.8 14.8 75 2.6 S 32 46 17 25 1007.9 1007.7 0.0
20/11:00am 18.4 14.1 15.5 83 1.7 S 32 39 17 21 1007.6 1007.4 0.0
20/10:30am 18.8 15.1 15.9 83 1.7 S 30 37 16 20 1007.2 1007.0 0.0
20/10:00am 18.5 15.7 16.3 87 1.3 S 26 33 14 18 1006.9 1006.7 0.0
20/09:30am 17.0 12.7 15.5 91 0.9 S 32 39 17 21 1006.4 1006.2 0.0
20/09:00am 18.2 15.7 16.2 88 1.2 S 24 33 13 18 1005.7 1005.5 13.2
20/08:30am 17.8 13.8 16.1 90 1.0 S 32 39 17 21 1005.3 1005.1 13.2
20/08:00am 18.4 15.7 16.7 90 1.0 S 26 33 14 18 1004.6 1004.4 13.2
20/07:30am 18.2 14.3 16.9 92 0.8 S 33 43 18 23 1004.0 1003.8 13.2
20/07:00am 18.2 15.4 17.2 94 0.6 SSW 28 37 15 20 1003.4 1003.2 13.2
20/06:30am 19.3 16.5 17.4 89 1.2 SSW 28 39 15 21 1002.5 1002.4 13.2
20/06:00am 19.6 18.6 17.9 90 1.1 SSW 20 30 11 16 1002.0 1001.9 13.2
20/05:30am 19.6 17.4 17.9 90 1.1 SSW 26 39 14 21 1001.7 1001.6 13.2
20/05:00am 19.9 17.9 18.2 90 1.1 SW 26 39 14 21 1001.5 1001.4 13.2
20/04:56am 20.0 19.2 18.5 91 0.9 WSW 20 39 11 21 1001.3 1001.2 13.2
20/04:30am 19.1 19.8 17.9 93 0.7 WSW 11 13 6 7 1000.9 1000.7 13.2
20/04:00am 19.3 21.1 18.3 94 0.6 WSW 6 7 3 4 999.9 999.7 13.2
20/03:30am 18.8 20.8 17.8 94 0.6 E 4 7 2 4 999.5 999.3 13.2
20/03:00am 18.7 19.4 17.9 95 0.5 ESE 11 15 6 8 999.1 998.9 13.2
20/02:30am 18.7 18.5 17.7 94 0.6 ESE 15 17 8 9 999.3 999.1 13.2
20/02:00am 19.1 18.1 17.6 91 0.9 ESE 19 24 10 13 999.7 999.5 10.0
20/01:30am 19.4 16.8 17.7 90 1.0 SE 28 35 15 19 999.6 999.4 10.0
20/01:00am 20.9 20.3 19.7 93 0.8 S 22 28 12 15 1000.4 1000.2 9.8
20/12:30am 21.0 20.0 19.7 92 0.8 SSW 24 30 13 16 1000.5 1000.3 9.8
20/12:00am 21.1 19.7 19.6 91 1.0 SSW 26 32 14 17 1000.1 999.9 9.8
 
Date/Time
CDT
Temp
°C
App
Temp
°C
Dew
Point
°C
Rel
Hum
%
Delta-T
°C
Wind Press
QNH
hPa
Press
MSL
hPa
Rain since
9am
mm
Dir  Spd
km/h
Gust
km/h
Spd
kts
Gust
kts
19/11:30pm 22.3 20.4 20.2 88 1.4 SW 30 43 16 23 1000.0 999.8 9.8
19/11:27pm 23.0 22.2 20.9 88 1.4 SW 26 43 14 23 999.9 999.7 9.8
19/11:00pm 24.7 27.1 22.9 90 1.2 WSW 15 19 8 10 999.6 999.4 9.8
19/10:30pm 25.1 27.2 22.4 85 1.8 NW 15 22 8 12 998.6 998.4 9.8
19/10:00pm 25.4 25.1 22.5 84 2.0 NNW 28 37 15 20 999.3 999.1 9.8
19/09:30pm 24.9 24.4 22.8 88 1.4 NW 30 39 16 21 999.3 999.1 9.8
19/09:00pm 24.8 24.8 23.0 90 1.2 WNW 28 35 15 19 999.5 999.3 9.6
19/08:30pm 25.1 26.4 23.3 90 1.2 W 22 30 12 16 999.2 999.0 9.2
19/08:00pm 25.0 27.2 24.0 94 0.7 WSW 19 28 10 15 999.4 999.2 8.4
19/07:36pm 24.3 23.3 23.6 96 0.5 WSW 35 56 19 30 999.4 999.2 7.6
19/07:30pm 23.9 18.0 23.0 95 0.6 W 59 102 32 55 999.6 999.4 7.6
19/07:16pm 24.6 20.3 20.7 79 2.6 NW 44 85 24 46 998.5 998.3 0.4
19/07:13pm 28.1 26.9 21.6 68 4.4 NNW 30 74 16 40 998.4 998.2 0.0
19/07:11pm 33.1 32.4 20.3 47 8.5 N 24 50 13 27 998.0 997.8 0.0
19/07:00pm 33.5 32.7 19.2 43 9.4 N 22 26 12 14 996.5 996.3 0.0
19/06:30pm 34.3 33.3 18.8 40 10.2 N 22 26 12 14 996.5 996.3 0.0
19/06:00pm 36.5 33.5 18.6 35 11.8 N 32 39 17 21 996.5 996.3 0.0
19/05:30pm 37.7 35.7 18.2 32 12.9 N 26 39 14 21 997.4 997.2 0.0
19/05:00pm 37.3 34.9 16.3 29 13.4 NNE 24 30 13 16 997.6 997.4 0.0
19/04:30pm 37.9 36.2 16.2 27 14.0 N 20 32 11 17 998.3 998.1 0.0
19/04:00pm 38.4 35.9 16.1 27 14.3 N 24 32 13 17 999.4 999.2 0.0
19/03:30pm 35.7 33.3 16.4 31 12.4 N 24 37 13 20 1000.4 1000.2 0.0
19/03:00pm 36.1 33.8 14.7 28 13.4 N 20 28 11 15 1001.3 1001.2 0.0
19/02:30pm 36.4 34.2 15.0 28 13.5 N 20 33 11 18 1002.1 1002.0 0.0
19/02:00pm 34.6 31.9 14.5 30 12.4 N 22 32 12 17 1003.2 1003.0 0.0
19/01:30pm 34.8 30.4 13.0 26 13.2 N 28 39 15 21 1004.1 1003.9 0.0
19/01:00pm 36.1 32.3 13.6 26 13.8 N 26 35 14 19 1004.7 1004.5 0.0
19/12:30pm 34.9 31.9 12.5 25 13.5 N 20 30 11 16 1005.2 1005.0 0.0
19/12:00pm 34.4 31.5 10.9 24 13.8 NNE 17 24 9 13 1005.5 1005.3 0.0
19/11:30am 33.6 30.3 10.9 25 13.3 NNE 19 30 10 16 1006.0 1005.8 0.0
19/11:00am 32.6 28.3 10.6 26 12.7 NNE 24 44 13 24 1006.5 1006.3 0.0
19/10:30am 31.1 27.5 9.9 27 12.1 ENE 19 26 10 14 1006.9 1006.7 0.0
19/10:00am 28.8 26.1 10.5 32 10.4 ENE 15 20 8 11 1007.4 1007.2 0.0
19/09:30am 27.9 25.3 10.6 34 9.8 ENE 15 20 8 11 1007.9 1007.7 0.0
19/09:00am 25.8 23.0 10.0 37 8.8 E 15 19 8 10 1008.3 1008.1 0.0
19/08:30am 24.3 21.4 10.9 43 7.5 ESE 17 19 9 10 1008.3 1008.1 0.0
19/08:00am 22.7 19.9 11.4 49 6.3 ESE 17 19 9 10 1008.1 1007.9 0.0
19/07:30am 21.3 18.7 11.9 55 5.3 ESE 17 20 9 11 1008.0 1007.8 0.0
19/07:00am 20.5 17.7 12.5 60 4.5 ESE 19 24 10 13 1008.0 1007.8 0.0
19/06:30am 19.1 16.7 12.6 66 3.7 ESE 17 20 9 11 1007.9 1007.7 0.0
19/06:00am 18.7 15.9 12.7 68 3.4 ESE 19 24 10 13 1007.9 1007.7 0.0
19/05:30am 18.6 15.6 12.4 67 3.5 ESE 20 24 11 13 1008.0 1007.8 0.0
19/05:00am 18.8 15.5 12.8 68 3.4 ESE 22 26 12 14 1007.9 1007.7 0.0
19/04:30am 19.0 15.2 12.5 66 3.6 ESE 24 30 13 16 1008.0 1007.8 0.0
19/04:00am 19.2 14.7 12.7 66 3.7 ESE 28 35 15 19 1008.1 1007.9 0.0
19/03:30am 19.3 14.9 12.8 66 3.7 ESE 28 35 15 19 1008.5 1008.3 0.0
19/03:00am 19.5 15.1 13.0 66 3.7 ESE 28 35 15 19 1008.8 1008.6 0.0
19/02:30am 19.8 14.7 13.0 65 3.9 ESE 32 39 17 21 1009.1 1008.9 0.0
19/02:00am 19.8 14.8 13.3 66 3.7 ESE 32 39 17 21 1009.5 1009.3 0.0
19/01:30am 19.6 14.6 13.3 67 3.6 ESE 32 44 17 24 1009.8 1009.6 0.0
19/01:00am 19.9 15.0 13.6 67 3.6 ESE 32 41 17 22 1009.9 1009.7 0.0
19/12:30am 19.9 15.8 13.8 68 3.5 ESE 28 35 15 19 1010.3 1010.1 0.0
19/12:00am 19.8 15.7 15.0 74 2.8 ESE 30 37 16 20 1010.7 1010.5 0.0
 
Date/Time
CDT
Temp
°C
App
Temp
°C
Dew
Point
°C
Rel
Hum
%
Delta-T
°C
Wind Press
QNH
hPa
Press
MSL
hPa
Rain since
9am
mm
Dir  Spd
km/h
Gust
km/h
Spd
kts
Gust
kts
18/11:30pm 19.8 15.4 15.2 75 2.7 SE 32 39 17 21 1011.1 1010.9 0.0
18/11:00pm 20.0 15.6 15.2 74 2.8 SE 32 39 17 21 1011.4 1011.2 0.0
18/10:30pm 19.9 15.2 14.9 73 2.9 SE 33 43 18 23 1011.4 1011.2 0.0
18/10:00pm 20.0 14.8 14.6 71 3.2 SE 35 46 19 25 1011.3 1011.1 0.0
18/09:30pm 20.2 14.5 14.1 68 3.5 SE 37 48 20 26 1011.3 1011.1 0.0
18/09:00pm 20.5 15.1 13.9 66 3.8 SE 35 46 19 25 1011.1 1010.9 0.0
18/08:30pm 21.3 15.8 13.5 61 4.5 SE 35 48 19 26 1010.9 1010.7 0.0
18/08:00pm 22.5 16.6 13.6 57 5.2 SE 37 48 20 26 1010.6 1010.4 0.0
18/07:30pm 24.1 18.1 13.3 51 6.3 SE 37 46 20 25 1010.5 1010.3 0.0
18/07:00pm 25.8 19.7 14.0 48 7.0 SE 39 48 21 26 1010.2 1010.0 0.0
18/06:30pm 26.1 19.9 13.9 47 7.2 SE 39 48 21 26 1010.1 1009.9 0.0
18/06:00pm 27.0 20.8 13.7 44 7.9 SE 39 50 21 27 1010.0 1009.8 0.0
18/05:30pm 27.9 21.7 12.7 39 8.9 SE 37 46 20 25 1010.1 1009.9 0.0
18/05:00pm 29.6 23.9 12.9 35 9.9 SE 35 43 19 23 1010.5 1010.3 0.0
18/04:30pm 29.8 24.1 13.1 36 9.9 SE 35 43 19 23 1010.9 1010.7 0.0
18/04:00pm 29.5 23.8 12.9 36 9.8 SE 35 44 19 24 1011.1 1010.9 0.0
18/03:30pm 29.2 23.9 13.0 37 9.6 SE 33 43 18 23 1011.4 1011.2 0.0
18/03:00pm 29.4 24.5 13.6 38 9.5 SE 32 43 17 23 1011.9 1011.7 0.0
18/02:30pm 29.4 25.3 14.8 41 8.9 SE 30 44 16 24 1012.2 1012.0 0.0
18/02:00pm 28.7 24.6 14.9 43 8.4 SE 30 39 16 21 1012.6 1012.4 0.0
18/01:30pm 27.1 22.5 14.5 46 7.6 SE 32 41 17 22 1013.0 1012.8 0.0
18/01:00pm 27.4 23.1 15.4 48 7.3 SE 32 43 17 23 1013.1 1012.9 0.0
18/12:30pm 26.4 22.1 15.8 52 6.5 SE 33 43 18 23 1013.3 1013.1 0.0
18/12:00pm 26.3 22.2 16.0 53 6.3 SE 32 43 17 23 1013.5 1013.3 0.0
18/11:30am 25.1 20.6 16.3 58 5.4 SE 35 46 19 25 1013.5 1013.3 0.0
18/11:00am 24.5 20.4 16.5 61 4.9 SE 33 43 18 23 1013.7 1013.5 0.0

Other Formats:

Comma delimited format used in spreadsheet applications
http://www.bom.gov.au/fwo/IDS60801/IDS60801.94685.axf

JavaScript Object Notation format (JSON) in row-major order
http://www.bom.gov.au/fwo/IDS60801/IDS60801.94685.json